createdAt,value
2017-02-24T00:00:01.274Z,0
2017-02-24T00:00:41.873Z,0
2017-02-24T00:01:22.450Z,0
2017-02-24T00:02:03.126Z,0
2017-02-24T00:02:43.767Z,0
2017-02-24T00:03:24.366Z,0
2017-02-24T00:04:04.970Z,0
2017-02-24T00:04:45.580Z,0
2017-02-24T00:05:26.183Z,0
2017-02-24T00:06:06.811Z,0
2017-02-24T00:06:47.385Z,0
2017-02-24T00:07:27.998Z,0
2017-02-24T00:08:08.593Z,0
2017-02-24T00:08:49.203Z,0
2017-02-24T00:09:29.797Z,0
2017-02-24T00:10:10.381Z,0
2017-02-24T00:10:50.994Z,0
2017-02-24T00:11:31.642Z,0
2017-02-24T00:12:12.256Z,0
2017-02-24T00:12:52.901Z,0
2017-02-24T00:13:33.467Z,0
2017-02-24T00:14:14.087Z,0
2017-02-24T00:14:54.666Z,0
2017-02-24T00:15:35.252Z,0
2017-02-24T00:16:15.834Z,0
2017-02-24T00:16:56.435Z,0
2017-02-24T00:17:37.010Z,0
2017-02-24T00:18:17.579Z,0
2017-02-24T00:18:58.168Z,0
2017-02-24T00:19:38.766Z,0
2017-02-24T00:20:19.379Z,0
2017-02-24T00:20:59.970Z,0
2017-02-24T00:21:40.555Z,0
2017-02-24T00:22:21.147Z,0
2017-02-24T00:23:01.748Z,0
2017-02-24T00:23:42.355Z,0
2017-02-24T00:24:22.961Z,0
2017-02-24T00:25:03.542Z,0
2017-02-24T00:25:44.101Z,0
2017-02-24T00:26:24.677Z,0
2017-02-24T00:27:05.260Z,0
2017-02-24T00:27:45.881Z,0
2017-02-24T00:28:26.453Z,0
2017-02-24T00:29:07.066Z,0
2017-02-24T00:29:47.662Z,0
2017-02-24T00:30:28.277Z,0
2017-02-24T00:31:08.878Z,0
2017-02-24T00:31:49.465Z,0
2017-02-24T00:32:30.064Z,0
2017-02-24T00:33:10.682Z,0
2017-02-24T00:33:51.286Z,0
2017-02-24T00:34:31.894Z,0
2017-02-24T00:35:12.500Z,0
2017-02-24T00:35:53.059Z,0
2017-02-24T00:36:33.630Z,0
2017-02-24T00:37:14.195Z,0
2017-02-24T00:37:54.841Z,0
2017-02-24T00:38:35.454Z,0
2017-02-24T00:39:16.061Z,0
2017-02-24T00:39:56.669Z,0
2017-02-24T00:40:37.250Z,0
2017-02-24T00:41:17.826Z,0
2017-02-24T00:41:58.396Z,0
2017-02-24T00:42:38.973Z,0
2017-02-24T00:43:19.534Z,0
2017-02-24T00:44:00.107Z,0
2017-02-24T00:44:40.688Z,0
2017-02-24T00:45:21.251Z,0
2017-02-24T00:46:01.843Z,0
2017-02-24T00:46:42.412Z,0
2017-02-24T00:47:22.991Z,0
2017-02-24T00:48:03.595Z,0
2017-02-24T00:48:44.170Z,0
2017-02-24T00:49:24.772Z,0
2017-02-24T00:50:05.345Z,0
2017-02-24T00:50:45.923Z,0
2017-02-24T00:51:26.551Z,0
2017-02-24T00:52:07.181Z,0
2017-02-24T00:52:47.774Z,0
2017-02-24T00:53:28.352Z,0
2017-02-24T00:54:08.921Z,0
2017-02-24T00:54:49.512Z,0
2017-02-24T00:55:30.095Z,0
2017-02-24T00:56:10.675Z,0
2017-02-24T00:56:51.248Z,0
2017-02-24T00:57:31.805Z,0
2017-02-24T00:58:12.394Z,0
2017-02-24T00:58:53.009Z,0
2017-02-24T00:59:33.608Z,0
2017-02-24T01:00:14.187Z,0
2017-02-24T01:00:54.769Z,0
2017-02-24T01:01:35.406Z,0
2017-02-24T01:02:15.978Z,0
2017-02-24T01:02:56.552Z,0
2017-02-24T01:03:37.129Z,0
2017-02-24T01:04:17.736Z,0
2017-02-24T01:04:58.300Z,0
2017-02-24T01:05:38.875Z,0
2017-02-24T01:06:19.533Z,0
2017-02-24T01:07:00.132Z,0
2017-02-24T01:07:40.704Z,0
2017-02-24T01:08:21.292Z,0
2017-02-24T01:09:01.886Z,0
2017-02-24T01:09:42.450Z,0
2017-02-24T01:10:23.052Z,0
2017-02-24T01:11:03.643Z,0
2017-02-24T01:11:44.238Z,0
2017-02-24T01:12:24.819Z,0
2017-02-24T01:13:05.423Z,0
2017-02-24T01:13:45.983Z,0
2017-02-24T01:14:26.546Z,0
2017-02-24T01:15:07.105Z,0
2017-02-24T01:15:47.683Z,0
2017-02-24T01:16:28.250Z,0
2017-02-24T01:17:08.828Z,0
2017-02-24T01:17:49.416Z,0
2017-02-24T01:18:29.989Z,0
2017-02-24T01:19:10.556Z,0
2017-02-24T01:19:51.121Z,0
2017-02-24T01:20:31.705Z,0
2017-02-24T01:21:12.281Z,0
2017-02-24T01:21:52.860Z,0
2017-02-24T01:22:33.432Z,0
2017-02-24T01:23:14.023Z,0
2017-02-24T01:23:54.674Z,0
2017-02-24T01:24:35.243Z,0
2017-02-24T01:25:15.821Z,0
2017-02-24T01:25:56.392Z,0
2017-02-24T01:26:36.991Z,0
2017-02-24T01:27:17.567Z,0
2017-02-24T01:27:58.148Z,0
2017-02-24T01:28:38.729Z,0
2017-02-24T01:29:19.318Z,0
2017-02-24T01:29:59.903Z,0
2017-02-24T01:30:40.490Z,0
2017-02-24T01:31:21.054Z,0
2017-02-24T01:32:01.627Z,0
2017-02-24T01:32:42.282Z,0
2017-02-24T01:33:22.898Z,0
2017-02-24T01:34:03.465Z,0
2017-02-24T01:34:44.049Z,0
2017-02-24T01:35:24.626Z,0
2017-02-24T01:36:05.192Z,0
2017-02-24T01:36:45.780Z,0
2017-02-24T01:37:26.357Z,0
2017-02-24T01:38:06.939Z,0
2017-02-24T01:38:47.506Z,0
2017-02-24T01:39:28.107Z,0
2017-02-24T01:40:08.689Z,0
2017-02-24T01:40:49.266Z,0
2017-02-24T01:41:29.853Z,0
2017-02-24T01:42:10.433Z,0
2017-02-24T01:42:51.045Z,0
2017-02-24T01:43:31.614Z,0
2017-02-24T01:44:12.210Z,0
2017-02-24T01:44:52.820Z,0
2017-02-24T01:45:33.375Z,0
2017-02-24T01:46:13.963Z,0
2017-02-24T01:46:54.543Z,0
2017-02-24T01:47:35.106Z,0
2017-02-24T01:48:15.667Z,0
2017-02-24T01:48:56.273Z,0
2017-02-24T01:49:36.859Z,0
2017-02-24T01:50:17.453Z,0
2017-02-24T01:50:58.040Z,0
2017-02-24T01:51:38.623Z,0
2017-02-24T01:52:19.217Z,0
2017-02-24T01:52:59.806Z,0
2017-02-24T01:53:40.361Z,0
2017-02-24T01:54:20.937Z,0
2017-02-24T01:55:01.503Z,0
2017-02-24T01:55:42.099Z,0
2017-02-24T01:56:22.699Z,0
2017-02-24T01:57:03.299Z,0
2017-02-24T01:57:43.872Z,0
2017-02-24T01:58:24.443Z,0
2017-02-24T01:59:05.012Z,0
2017-02-24T01:59:45.582Z,0
2017-02-24T02:00:26.173Z,0
2017-02-24T02:01:06.753Z,0
2017-02-24T02:01:47.319Z,0
2017-02-24T02:02:27.915Z,0
2017-02-24T02:03:08.471Z,0
2017-02-24T02:03:49.040Z,0
2017-02-24T02:04:29.603Z,0
2017-02-24T02:05:10.174Z,0
2017-02-24T02:05:50.741Z,0
2017-02-24T02:06:31.333Z,0
2017-02-24T02:07:11.924Z,0
2017-02-24T02:07:52.503Z,0
2017-02-24T02:08:33.078Z,0
2017-02-24T02:09:13.668Z,0
2017-02-24T02:09:54.276Z,0
2017-02-24T02:10:34.844Z,0
2017-02-24T02:11:15.465Z,0
2017-02-24T02:11:56.026Z,0
2017-02-24T02:12:36.592Z,0
2017-02-24T02:13:17.634Z,0
2017-02-24T02:13:58.237Z,0
2017-02-24T02:14:38.822Z,0
2017-02-24T02:15:19.416Z,0
2017-02-24T02:15:59.989Z,0
2017-02-24T02:16:40.548Z,0
2017-02-24T02:17:21.105Z,0
2017-02-24T02:18:01.693Z,0
2017-02-24T02:18:42.269Z,0
2017-02-24T02:19:22.845Z,0
2017-02-24T02:20:03.471Z,0
2017-02-24T02:20:44.063Z,0
2017-02-24T02:21:24.648Z,0
2017-02-24T02:22:05.203Z,0
2017-02-24T02:22:45.800Z,0
2017-02-24T02:23:26.389Z,0
2017-02-24T02:24:06.969Z,0
2017-02-24T02:24:47.553Z,0
2017-02-24T02:25:28.165Z,0
2017-02-24T02:26:08.743Z,0
2017-02-24T02:26:49.322Z,0
2017-02-24T02:27:29.896Z,0
2017-02-24T02:28:10.462Z,0
2017-02-24T02:28:51.035Z,0
2017-02-24T02:29:31.596Z,0
2017-02-24T02:30:12.179Z,0
2017-02-24T02:30:52.749Z,0
2017-02-24T02:31:33.339Z,0
2017-02-24T02:32:13.949Z,0
2017-02-24T02:32:54.531Z,0
2017-02-24T02:33:35.090Z,0
2017-02-24T02:34:15.659Z,0
2017-02-24T02:34:56.240Z,0
2017-02-24T02:35:36.863Z,0
2017-02-24T02:36:17.444Z,0
2017-02-24T02:36:58.011Z,0
2017-02-24T02:37:38.587Z,0
2017-02-24T02:38:19.169Z,0
2017-02-24T02:38:59.756Z,0
2017-02-24T02:39:40.355Z,0
2017-02-24T02:40:20.945Z,0
2017-02-24T02:41:01.538Z,0
2017-02-24T02:41:42.132Z,0
2017-02-24T02:42:22.710Z,0
2017-02-24T02:43:03.295Z,0
2017-02-24T02:43:43.860Z,0
2017-02-24T02:44:24.425Z,0
2017-02-24T02:45:05.024Z,0
2017-02-24T02:45:45.634Z,0
2017-02-24T02:46:26.210Z,0
2017-02-24T02:47:06.803Z,0
2017-02-24T02:47:47.362Z,0
2017-02-24T02:48:27.920Z,0
2017-02-24T02:49:08.481Z,0
2017-02-24T02:49:49.084Z,0
2017-02-24T02:50:29.664Z,0
2017-02-24T02:51:10.250Z,0
2017-02-24T02:51:50.858Z,0
2017-02-24T02:52:31.444Z,0
2017-02-24T02:53:12.032Z,0
2017-02-24T02:53:52.634Z,0
2017-02-24T02:54:33.204Z,0
2017-02-24T02:55:13.785Z,0
2017-02-24T02:55:54.391Z,0
2017-02-24T02:56:34.962Z,0
2017-02-24T02:57:15.536Z,0
2017-02-24T02:57:56.150Z,0
2017-02-24T02:58:36.730Z,0
2017-02-24T02:59:17.325Z,0
2017-02-24T02:59:57.896Z,0
2017-02-24T03:00:38.461Z,0
2017-02-24T03:01:19.040Z,0
2017-02-24T03:01:59.627Z,0
2017-02-24T03:02:40.198Z,0
2017-02-24T03:03:20.774Z,0
2017-02-24T03:04:01.339Z,0
2017-02-24T03:04:41.906Z,0
2017-02-24T03:05:22.503Z,0
2017-02-24T03:06:03.055Z,0
2017-02-24T03:06:43.625Z,0
2017-02-24T03:07:24.203Z,0
2017-02-24T03:08:04.796Z,0
2017-02-24T03:08:45.367Z,0
2017-02-24T03:09:25.969Z,0
2017-02-24T03:10:06.552Z,0
2017-02-24T03:10:47.116Z,0
2017-02-24T03:11:27.695Z,0
2017-02-24T03:12:08.257Z,0
2017-02-24T03:12:48.837Z,0
2017-02-24T03:13:29.408Z,0
2017-02-24T03:14:09.970Z,0
2017-02-24T03:14:50.564Z,0
2017-02-24T03:15:31.177Z,0
2017-02-24T03:16:11.773Z,0
2017-02-24T03:16:52.346Z,0
2017-02-24T03:17:32.914Z,0
2017-02-24T03:18:13.477Z,0
2017-02-24T03:18:54.042Z,0
2017-02-24T03:19:34.605Z,0
2017-02-24T03:20:15.176Z,0
2017-02-24T03:20:55.786Z,0
2017-02-24T03:21:36.423Z,0
2017-02-24T03:22:17.012Z,0
2017-02-24T03:22:57.596Z,0
2017-02-24T03:23:38.152Z,0
2017-02-24T03:24:18.742Z,0
2017-02-24T03:24:59.338Z,0
2017-02-24T03:25:39.944Z,0
2017-02-24T03:26:20.502Z,0
2017-02-24T03:27:01.107Z,0
2017-02-24T03:27:41.721Z,0
2017-02-24T03:28:22.286Z,0
2017-02-24T03:29:02.877Z,0
2017-02-24T03:29:43.488Z,0
2017-02-24T03:30:24.080Z,0
2017-02-24T03:31:04.709Z,0
2017-02-24T03:31:45.239Z,0
2017-02-24T03:32:25.829Z,0
2017-02-24T03:33:06.391Z,0
2017-02-24T03:33:46.966Z,0
2017-02-24T03:34:28.313Z,0
2017-02-24T03:35:08.916Z,0
2017-02-24T03:35:49.515Z,0
2017-02-24T03:36:30.080Z,0
2017-02-24T03:37:10.680Z,0
2017-02-24T03:37:51.299Z,0
2017-02-24T03:38:31.863Z,0
2017-02-24T03:39:12.494Z,0
2017-02-24T03:39:53.120Z,0
2017-02-24T03:40:33.700Z,0
2017-02-24T03:41:14.291Z,0
2017-02-24T03:41:54.864Z,0
2017-02-24T03:42:35.424Z,0
2017-02-24T03:43:16.025Z,0
2017-02-24T03:43:56.617Z,0
2017-02-24T03:44:37.192Z,0
2017-02-24T03:45:17.816Z,0
2017-02-24T03:45:58.384Z,0
2017-02-24T03:46:38.954Z,0
2017-02-24T03:47:19.538Z,0
2017-02-24T03:48:00.085Z,0
2017-02-24T03:48:40.684Z,0
2017-02-24T03:49:21.239Z,0
2017-02-24T03:50:01.810Z,0
2017-02-24T03:50:42.393Z,0
2017-02-24T03:51:22.988Z,0
2017-02-24T03:52:03.556Z,0
2017-02-24T03:52:44.131Z,0
2017-02-24T03:53:24.723Z,0
2017-02-24T03:54:05.300Z,0
2017-02-24T03:54:45.932Z,0
2017-02-24T03:55:26.501Z,0
2017-02-24T03:56:07.117Z,0
2017-02-24T03:56:47.708Z,0
2017-02-24T03:57:28.295Z,0
2017-02-24T03:58:08.871Z,0
2017-02-24T03:58:49.432Z,0
2017-02-24T03:59:30.007Z,0
2017-02-24T04:00:10.584Z,0
2017-02-24T04:00:51.196Z,0
2017-02-24T04:01:31.767Z,0
2017-02-24T04:02:12.375Z,0
2017-02-24T04:02:52.976Z,0
2017-02-24T04:03:33.537Z,0
2017-02-24T04:04:14.125Z,0
2017-02-24T04:04:54.718Z,0
2017-02-24T04:05:35.292Z,0
2017-02-24T04:06:15.876Z,0
2017-02-24T04:06:56.462Z,0
2017-02-24T04:07:37.047Z,0
2017-02-24T04:08:17.611Z,0
2017-02-24T04:08:58.174Z,0
2017-02-24T04:09:38.758Z,0
2017-02-24T04:10:19.329Z,0
2017-02-24T04:10:59.896Z,0
2017-02-24T04:11:40.484Z,0
2017-02-24T04:12:21.069Z,0
2017-02-24T04:13:01.656Z,0
2017-02-24T04:13:42.269Z,0
2017-02-24T04:14:22.811Z,0
2017-02-24T04:15:03.374Z,0
2017-02-24T04:15:43.949Z,0
2017-02-24T04:16:24.530Z,0
2017-02-24T04:17:05.133Z,0
2017-02-24T04:17:45.722Z,0
2017-02-24T04:18:26.490Z,0
2017-02-24T04:19:07.086Z,0
2017-02-24T04:19:47.679Z,0
2017-02-24T04:20:28.327Z,0
2017-02-24T04:21:08.904Z,0
2017-02-24T04:21:49.475Z,0
2017-02-24T04:22:30.049Z,0
2017-02-24T04:23:10.619Z,0
2017-02-24T04:23:51.213Z,0
2017-02-24T04:24:31.789Z,0
2017-02-24T04:25:12.379Z,0
2017-02-24T04:25:52.953Z,0
2017-02-24T04:26:33.537Z,0
2017-02-24T04:27:14.112Z,0
2017-02-24T04:27:54.677Z,0
2017-02-24T04:28:35.318Z,0
2017-02-24T04:29:15.909Z,0
2017-02-24T04:29:56.487Z,0
2017-02-24T04:30:37.068Z,0
2017-02-24T04:31:17.661Z,0
2017-02-24T04:31:58.231Z,0
2017-02-24T04:32:38.834Z,0
2017-02-24T04:33:19.461Z,0
2017-02-24T04:34:00.043Z,0
2017-02-24T04:34:40.625Z,0
2017-02-24T04:35:21.190Z,0
2017-02-24T04:36:01.783Z,0
2017-02-24T04:36:42.345Z,0
2017-02-24T04:37:22.932Z,0
2017-02-24T04:38:03.555Z,0
2017-02-24T04:38:44.157Z,0
2017-02-24T04:39:24.742Z,0
2017-02-24T04:40:05.326Z,0
2017-02-24T04:40:45.922Z,0
2017-02-24T04:41:26.519Z,0
2017-02-24T04:42:07.078Z,0
2017-02-24T04:42:47.658Z,0
2017-02-24T04:43:28.235Z,0
2017-02-24T04:44:08.811Z,0
2017-02-24T04:44:49.393Z,0
2017-02-24T04:45:29.975Z,0
2017-02-24T04:46:10.566Z,0
2017-02-24T04:46:51.160Z,0
2017-02-24T04:47:31.750Z,0
2017-02-24T04:48:12.321Z,0
2017-02-24T04:48:52.912Z,0
2017-02-24T04:49:33.492Z,0
2017-02-24T04:50:14.048Z,0
2017-02-24T04:50:54.664Z,0
2017-02-24T04:51:35.280Z,0
2017-02-24T04:52:15.864Z,0
2017-02-24T04:52:56.460Z,0
2017-02-24T04:53:37.058Z,0
2017-02-24T04:54:17.652Z,0
2017-02-24T04:54:58.243Z,0
2017-02-24T04:55:38.826Z,0
2017-02-24T04:56:19.414Z,0
2017-02-24T04:57:00.000Z,0
2017-02-24T04:57:40.572Z,0
2017-02-24T04:58:21.159Z,0
2017-02-24T04:59:01.720Z,0
2017-02-24T04:59:42.360Z,0
2017-02-24T05:00:22.918Z,0
2017-02-24T05:01:03.504Z,0
2017-02-24T05:01:44.085Z,0
2017-02-24T05:02:24.683Z,0
2017-02-24T05:03:05.297Z,0
2017-02-24T05:03:45.916Z,0
2017-02-24T05:04:26.508Z,0
2017-02-24T05:05:07.082Z,0
2017-02-24T05:05:47.658Z,0
2017-02-24T05:06:28.255Z,0
2017-02-24T05:07:08.845Z,0
2017-02-24T05:07:49.441Z,0
2017-02-24T05:08:30.061Z,0
2017-02-24T05:09:10.624Z,0
2017-02-24T05:09:51.208Z,0
2017-02-24T05:10:31.790Z,0
2017-02-24T05:11:12.354Z,0
2017-02-24T05:11:52.939Z,0
2017-02-24T05:12:33.513Z,0
2017-02-24T05:13:14.168Z,0
2017-02-24T05:13:54.753Z,0
2017-02-24T05:14:35.319Z,0
2017-02-24T05:15:15.883Z,0
2017-02-24T05:15:56.443Z,0
2017-02-24T05:16:37.045Z,0
2017-02-24T05:17:17.615Z,0
2017-02-24T05:17:58.192Z,0
2017-02-24T05:18:38.763Z,0
2017-02-24T05:19:19.334Z,0
2017-02-24T05:19:59.906Z,0
2017-02-24T05:20:40.471Z,0
2017-02-24T05:21:21.072Z,0
2017-02-24T05:22:01.646Z,0
2017-02-24T05:22:42.226Z,0
2017-02-24T05:23:22.797Z,0
2017-02-24T05:24:03.373Z,0
2017-02-24T05:24:43.985Z,0
2017-02-24T05:25:24.611Z,0
2017-02-24T05:26:05.186Z,0
2017-02-24T05:26:45.772Z,0
2017-02-24T05:27:26.393Z,0
2017-02-24T05:28:07.001Z,0
2017-02-24T05:28:47.579Z,0
2017-02-24T05:29:28.148Z,0
2017-02-24T05:30:08.716Z,0
2017-02-24T05:30:49.329Z,0
2017-02-24T05:31:29.889Z,0
2017-02-24T05:32:10.507Z,0
2017-02-24T05:32:51.105Z,0
2017-02-24T05:33:31.694Z,0
2017-02-24T05:34:12.280Z,0
2017-02-24T05:34:52.903Z,0
2017-02-24T05:35:33.525Z,0
2017-02-24T05:36:14.076Z,0
2017-02-24T05:36:54.665Z,0
2017-02-24T05:37:35.276Z,0
2017-02-24T05:38:15.850Z,0
2017-02-24T05:38:56.416Z,0
2017-02-24T05:39:36.986Z,0
2017-02-24T05:40:17.583Z,0
2017-02-24T05:40:58.163Z,0
2017-02-24T05:41:38.749Z,0
2017-02-24T05:42:19.320Z,0
2017-02-24T05:42:59.919Z,0
2017-02-24T05:43:40.519Z,0
2017-02-24T05:44:21.094Z,0
2017-02-24T05:45:01.674Z,0
2017-02-24T05:45:42.245Z,0
2017-02-24T05:46:22.818Z,0
2017-02-24T05:47:03.436Z,0
2017-02-24T05:47:44.031Z,0
2017-02-24T05:48:24.648Z,0
2017-02-24T05:49:05.192Z,0
2017-02-24T05:49:45.786Z,0
2017-02-24T05:50:26.356Z,0
2017-02-24T05:51:06.934Z,0
2017-02-24T05:51:47.509Z,0
2017-02-24T05:52:28.125Z,0
2017-02-24T05:53:08.709Z,0
2017-02-24T05:53:49.286Z,0
2017-02-24T05:54:29.867Z,0
2017-02-24T05:55:10.451Z,0
2017-02-24T05:55:51.015Z,0
2017-02-24T05:56:31.582Z,0
2017-02-24T05:57:12.158Z,0
2017-02-24T05:57:52.747Z,0
2017-02-24T05:58:33.324Z,0
2017-02-24T05:59:13.895Z,0
2017-02-24T05:59:54.487Z,0
2017-02-24T06:00:35.076Z,0
2017-02-24T06:01:15.637Z,0
2017-02-24T06:01:56.196Z,0
2017-02-24T06:02:36.764Z,0
2017-02-24T06:03:17.376Z,0
2017-02-24T06:03:57.937Z,0
2017-02-24T06:04:38.515Z,0
2017-02-24T06:05:19.075Z,0
2017-02-24T06:05:59.644Z,0
2017-02-24T06:06:40.248Z,0
2017-02-24T06:07:20.835Z,0
2017-02-24T06:08:01.410Z,0
2017-02-24T06:08:42.000Z,0
2017-02-24T06:09:22.591Z,0
2017-02-24T06:10:03.193Z,0
2017-02-24T06:10:43.775Z,0
2017-02-24T06:11:24.354Z,0
2017-02-24T06:12:04.935Z,0
2017-02-24T06:12:45.509Z,0
2017-02-24T06:13:26.098Z,0
2017-02-24T06:14:06.671Z,0
2017-02-24T06:14:47.286Z,0
2017-02-24T06:15:27.898Z,0
2017-02-24T06:16:08.491Z,0
2017-02-24T06:16:49.070Z,0
2017-02-24T06:17:29.622Z,0
2017-02-24T06:18:10.204Z,0
2017-02-24T06:18:50.792Z,5
2017-02-24T06:19:31.433Z,5
2017-02-24T06:20:12.027Z,5
2017-02-24T06:20:52.688Z,5
2017-02-24T06:21:33.317Z,5
2017-02-24T06:22:13.906Z,5
2017-02-24T06:22:54.494Z,5
2017-02-24T06:23:35.097Z,5
2017-02-24T06:24:15.676Z,5
2017-02-24T06:24:56.293Z,5
2017-02-24T06:25:36.919Z,5
2017-02-24T06:26:17.484Z,5
2017-02-24T06:26:58.050Z,5
2017-02-24T06:27:38.644Z,5
2017-02-24T06:28:19.213Z,5
2017-02-24T06:28:59.823Z,5
2017-02-24T06:29:40.396Z,5
2017-02-24T06:30:20.978Z,5
2017-02-24T06:31:01.581Z,5
2017-02-24T06:31:42.152Z,5
2017-02-24T06:32:22.715Z,5
2017-02-24T06:33:03.309Z,5
2017-02-24T06:33:43.890Z,5
2017-02-24T06:34:24.474Z,5
2017-02-24T06:35:05.067Z,5
2017-02-24T06:35:45.675Z,5
2017-02-24T06:36:26.250Z,5
2017-02-24T06:37:06.822Z,5
2017-02-24T06:37:47.414Z,5
2017-02-24T06:38:27.978Z,5
2017-02-24T06:39:08.590Z,5
2017-02-24T06:39:49.210Z,5
2017-02-24T06:40:29.819Z,5
2017-02-24T06:41:10.391Z,5
2017-02-24T06:41:50.961Z,5
2017-02-24T06:42:31.534Z,5
2017-02-24T06:43:12.105Z,5
2017-02-24T06:43:52.671Z,5
2017-02-24T06:44:33.238Z,5
2017-02-24T06:45:13.811Z,5
2017-02-24T06:45:54.381Z,5
2017-02-24T06:46:34.955Z,5
2017-02-24T06:47:15.514Z,5
2017-02-24T06:47:56.099Z,5
2017-02-24T06:48:36.666Z,5
2017-02-24T06:49:17.258Z,5
2017-02-24T06:49:57.838Z,5
2017-02-24T06:50:38.408Z,5
2017-02-24T06:51:18.971Z,5
2017-02-24T06:51:59.547Z,5
2017-02-24T06:52:40.121Z,5
2017-02-24T06:53:20.688Z,5
2017-02-24T06:54:01.457Z,5
2017-02-24T06:54:42.069Z,5
2017-02-24T06:55:22.645Z,5
2017-02-24T06:56:03.314Z,5
2017-02-24T06:56:43.908Z,5
2017-02-24T06:57:24.601Z,5
2017-02-24T06:58:05.567Z,5
2017-02-24T06:58:45.948Z,5
2017-02-24T06:59:26.521Z,5
2017-02-24T07:00:07.122Z,5
2017-02-24T07:00:47.708Z,5
2017-02-24T07:01:28.328Z,5
2017-02-24T07:02:08.897Z,5
2017-02-24T07:02:49.479Z,5
2017-02-24T07:03:30.073Z,5
2017-02-24T07:04:10.643Z,5
2017-02-24T07:04:51.213Z,5
2017-02-24T07:05:31.817Z,5
2017-02-24T07:06:12.402Z,5
2017-02-24T07:06:52.971Z,5
2017-02-24T07:07:33.554Z,5
2017-02-24T07:08:14.114Z,5
2017-02-24T07:08:54.676Z,5
2017-02-24T07:09:35.273Z,5
2017-02-24T07:10:15.882Z,5
2017-02-24T07:10:56.455Z,5
2017-02-24T07:11:37.018Z,5
2017-02-24T07:12:17.616Z,5
2017-02-24T07:12:58.208Z,5
2017-02-24T07:13:38.793Z,5
2017-02-24T07:14:19.367Z,5
2017-02-24T07:14:59.930Z,5
2017-02-24T07:15:40.511Z,5
2017-02-24T07:16:21.079Z,5
2017-02-24T07:17:01.691Z,5
2017-02-24T07:17:42.247Z,5
2017-02-24T07:18:22.810Z,5
2017-02-24T07:19:03.409Z,5
2017-02-24T07:19:43.987Z,5
2017-02-24T07:20:24.527Z,5
2017-02-24T07:21:05.097Z,5
2017-02-24T07:21:45.668Z,5
2017-02-24T07:22:26.243Z,5
2017-02-24T07:23:06.812Z,5
2017-02-24T07:23:47.406Z,5
2017-02-24T07:24:28.001Z,5
2017-02-24T07:25:08.622Z,5
2017-02-24T07:25:49.197Z,10
2017-02-24T07:26:29.781Z,10
2017-02-24T07:27:10.373Z,10
2017-02-24T07:27:50.950Z,5
2017-02-24T07:28:31.534Z,5
2017-02-24T07:29:12.099Z,10
2017-02-24T07:29:52.660Z,5
2017-02-24T07:30:33.239Z,5
2017-02-24T07:31:13.852Z,5
2017-02-24T07:31:54.429Z,5
2017-02-24T07:32:35.042Z,5
2017-02-24T07:33:16.221Z,10
2017-02-24T07:33:57.910Z,10
2017-02-24T07:34:38.477Z,15
2017-02-24T07:35:19.048Z,15
2017-02-24T07:35:59.615Z,20
2017-02-24T07:36:40.315Z,20
2017-02-24T07:37:20.906Z,25
2017-02-24T07:38:01.471Z,30
2017-02-24T07:38:42.113Z,30
2017-02-24T07:39:22.723Z,25
2017-02-24T07:40:03.306Z,25
2017-02-24T07:40:43.900Z,20
2017-02-24T07:41:24.483Z,25
2017-02-24T07:42:05.056Z,30
2017-02-24T07:42:45.642Z,30
2017-02-24T07:43:26.249Z,30
2017-02-24T07:44:06.844Z,35
2017-02-24T07:44:47.423Z,30
2017-02-24T07:45:28.125Z,35
2017-02-24T07:46:08.675Z,40
2017-02-24T07:46:49.279Z,40
2017-02-24T07:47:29.860Z,40
2017-02-24T07:48:10.439Z,40
2017-02-24T07:48:50.987Z,40
2017-02-24T07:49:31.641Z,35
2017-02-24T07:50:12.249Z,35
2017-02-24T07:50:52.822Z,35
2017-02-24T07:51:33.399Z,35
2017-02-24T07:52:14.060Z,35
2017-02-24T07:52:54.643Z,40
2017-02-24T07:53:35.387Z,40
2017-02-24T07:54:16.433Z,45
2017-02-24T07:54:57.002Z,45
2017-02-24T07:55:37.598Z,40
2017-02-24T07:56:18.182Z,50
2017-02-24T07:56:58.813Z,50
2017-02-24T07:57:39.395Z,50
2017-02-24T07:58:19.991Z,50
2017-02-24T07:59:00.590Z,50
2017-02-24T07:59:41.181Z,50
2017-02-24T08:00:21.778Z,55
2017-02-24T08:01:02.600Z,45
2017-02-24T08:01:43.179Z,55
2017-02-24T08:02:24.170Z,65
2017-02-24T08:03:05.874Z,70
2017-02-24T08:03:47.975Z,85
2017-02-24T08:04:28.844Z,110
2017-02-24T08:05:09.559Z,75
2017-02-24T08:05:50.537Z,70
2017-02-24T08:06:31.457Z,70
2017-02-24T08:07:12.193Z,70
2017-02-24T08:07:53.078Z,65
2017-02-24T08:08:33.813Z,60
2017-02-24T08:09:14.602Z,55
2017-02-24T08:09:55.344Z,55
2017-02-24T08:10:36.361Z,45
2017-02-24T08:11:17.110Z,40
2017-02-24T08:11:57.989Z,50
2017-02-24T08:12:38.638Z,55
2017-02-24T08:13:19.438Z,60
2017-02-24T08:14:00.196Z,60
2017-02-24T08:14:41.145Z,70
2017-02-24T08:15:21.919Z,75
2017-02-24T08:16:02.645Z,75
2017-02-24T08:16:43.421Z,80
2017-02-24T08:17:24.195Z,80
2017-02-24T08:18:04.905Z,70
2017-02-24T08:18:45.761Z,70
2017-02-24T08:19:26.524Z,60
2017-02-24T08:20:07.253Z,60
2017-02-24T08:20:48.014Z,60
2017-02-24T08:21:28.658Z,50
2017-02-24T08:22:09.508Z,45
2017-02-24T08:22:50.479Z,35
2017-02-24T08:23:31.220Z,30
2017-02-24T08:24:12.081Z,25
2017-02-24T08:24:52.845Z,20
2017-02-24T08:25:33.656Z,15
2017-02-24T08:26:14.427Z,10
2017-02-24T08:26:55.211Z,10
2017-02-24T08:27:36.028Z,10
2017-02-24T08:28:16.812Z,10
2017-02-24T08:28:57.555Z,10
2017-02-24T08:29:38.310Z,5
2017-02-24T08:30:19.033Z,5
2017-02-24T08:30:59.683Z,5
2017-02-24T08:31:40.290Z,5
2017-02-24T08:32:21.081Z,5
2017-02-24T08:33:01.796Z,5
2017-02-24T08:33:42.484Z,10
2017-02-24T08:34:23.263Z,20
2017-02-24T08:35:03.955Z,35
2017-02-24T08:35:44.650Z,40
2017-02-24T08:36:25.335Z,45
2017-02-24T08:37:05.893Z,45
2017-02-24T08:37:46.510Z,45
2017-02-24T08:38:27.213Z,45
2017-02-24T08:39:08.107Z,45
2017-02-24T08:39:48.715Z,45
2017-02-24T08:40:29.278Z,45
2017-02-24T08:41:09.849Z,40
2017-02-24T08:41:50.421Z,35
2017-02-24T08:42:30.996Z,40
2017-02-24T08:43:11.616Z,35
2017-02-24T08:43:52.174Z,35
2017-02-24T08:44:32.744Z,35
2017-02-24T08:45:13.300Z,40
2017-02-24T08:45:53.870Z,40
2017-02-24T08:46:34.450Z,35
2017-02-24T08:47:15.029Z,35
2017-02-24T08:47:55.624Z,35
2017-02-24T08:48:36.187Z,35
2017-02-24T08:49:16.769Z,35
2017-02-24T08:49:57.352Z,35
2017-02-24T08:50:37.915Z,35
2017-02-24T08:51:18.546Z,35
2017-02-24T08:51:59.087Z,35
2017-02-24T08:52:39.716Z,35
2017-02-24T08:53:20.316Z,35
2017-02-24T08:54:00.905Z,35
2017-02-24T08:54:41.474Z,30
2017-02-24T08:55:22.046Z,30
2017-02-24T08:56:02.629Z,25
2017-02-24T08:56:43.203Z,25
2017-02-24T08:57:23.811Z,30
2017-02-24T08:58:04.378Z,25
2017-02-24T08:58:44.945Z,30
2017-02-24T08:59:25.691Z,30
2017-02-24T09:00:06.286Z,30
2017-02-24T09:00:46.854Z,30
2017-02-24T09:01:27.410Z,30
2017-02-24T09:02:07.996Z,35
2017-02-24T09:02:48.572Z,35
2017-02-24T09:03:29.162Z,35
2017-02-24T09:04:09.743Z,35
2017-02-24T09:04:50.348Z,40
2017-02-24T09:05:30.915Z,45
2017-02-24T09:06:11.496Z,45
2017-02-24T09:06:52.070Z,40
2017-02-24T09:07:32.647Z,45
2017-02-24T09:08:13.230Z,45
2017-02-24T09:08:53.809Z,50
2017-02-24T09:09:34.425Z,50
2017-02-24T09:10:15.001Z,45
2017-02-24T09:10:55.603Z,45
2017-02-24T09:11:36.188Z,45
2017-02-24T09:12:16.774Z,40
2017-02-24T09:12:57.365Z,45
2017-02-24T09:13:37.994Z,45
2017-02-24T09:14:18.623Z,45
2017-02-24T09:14:59.200Z,40
2017-02-24T09:15:39.793Z,45
2017-02-24T09:16:20.371Z,45
2017-02-24T09:17:00.981Z,45
2017-02-24T09:17:41.571Z,45
2017-02-24T09:18:22.140Z,35
2017-02-24T09:19:02.715Z,30
2017-02-24T09:19:43.298Z,30
2017-02-24T09:20:23.903Z,30
2017-02-24T09:21:04.521Z,30
2017-02-24T09:21:45.120Z,30
2017-02-24T09:22:25.717Z,35
2017-02-24T09:23:06.301Z,35
2017-02-24T09:23:46.879Z,35
2017-02-24T09:24:27.477Z,35
2017-02-24T09:25:08.056Z,35
2017-02-24T09:25:48.661Z,35
2017-02-24T09:26:29.257Z,35
2017-02-24T09:27:09.858Z,40
2017-02-24T09:27:50.498Z,40
2017-02-24T09:28:31.081Z,45
2017-02-24T09:29:11.658Z,45
2017-02-24T09:29:52.295Z,45
2017-02-24T09:30:32.936Z,45
2017-02-24T09:31:13.550Z,40
2017-02-24T09:31:54.127Z,40
2017-02-24T09:32:34.721Z,45
2017-02-24T09:33:15.310Z,45
2017-02-24T09:33:55.905Z,45
2017-02-24T09:34:36.498Z,45
2017-02-24T09:35:17.082Z,45
2017-02-24T09:35:57.686Z,45
2017-02-24T09:36:38.330Z,50
2017-02-24T09:37:18.913Z,45
2017-02-24T09:37:59.518Z,50
2017-02-24T09:38:40.117Z,50
2017-02-24T09:39:20.696Z,50
2017-02-24T09:40:01.294Z,50
2017-02-24T09:40:41.921Z,50
2017-02-24T09:41:22.508Z,55
2017-02-24T09:42:03.104Z,55
2017-02-24T09:42:43.692Z,55
2017-02-24T09:43:24.279Z,55
2017-02-24T09:44:04.899Z,60
2017-02-24T09:44:45.471Z,60
2017-02-24T09:45:26.060Z,60
2017-02-24T09:46:06.656Z,60
2017-02-24T09:46:47.262Z,60
2017-02-24T09:47:27.852Z,55
2017-02-24T09:48:08.448Z,55
2017-02-24T09:48:49.035Z,55
2017-02-24T09:49:29.619Z,55
2017-02-24T09:50:10.224Z,55
2017-02-24T09:50:50.808Z,50
2017-02-24T09:51:31.404Z,50
2017-02-24T09:52:11.984Z,55
2017-02-24T09:52:52.599Z,50
2017-02-24T09:53:33.198Z,50
2017-02-24T09:54:13.815Z,45
2017-02-24T09:54:54.409Z,40